createdAt,value
2017-05-24T00:00:58.225Z,0
2017-05-24T00:01:58.244Z,0
2017-05-24T00:02:58.233Z,0
2017-05-24T00:03:58.204Z,0
2017-05-24T00:04:58.236Z,0
2017-05-24T00:05:58.199Z,0
2017-05-24T00:06:58.242Z,0
2017-05-24T00:07:58.232Z,0
2017-05-24T00:08:58.229Z,0
2017-05-24T00:09:58.227Z,0
2017-05-24T00:10:58.237Z,0
2017-05-24T00:11:58.264Z,0
2017-05-24T00:12:58.214Z,0
2017-05-24T00:13:58.246Z,0
2017-05-24T00:14:58.247Z,0
2017-05-24T00:15:58.242Z,0
2017-05-24T00:16:58.234Z,0
2017-05-24T00:17:58.253Z,0
2017-05-24T00:18:58.218Z,0
2017-05-24T00:19:58.217Z,0
2017-05-24T00:20:58.245Z,0
2017-05-24T00:21:58.225Z,0
2017-05-24T00:22:58.246Z,0
2017-05-24T00:23:58.244Z,0
2017-05-24T00:24:58.218Z,0
2017-05-24T00:25:58.246Z,0
2017-05-24T00:26:58.241Z,0
2017-05-24T00:27:58.218Z,0
2017-05-24T00:28:58.262Z,0
2017-05-24T00:29:58.243Z,0
2017-05-24T00:30:58.243Z,0
2017-05-24T00:31:58.245Z,0
2017-05-24T00:32:58.243Z,0
2017-05-24T00:33:58.240Z,0
2017-05-24T00:34:58.245Z,0
2017-05-24T00:35:58.238Z,0
2017-05-24T00:36:58.224Z,0
2017-05-24T00:37:58.226Z,0
2017-05-24T00:38:58.231Z,0
2017-05-24T00:39:58.243Z,0
2017-05-24T00:40:58.256Z,0
2017-05-24T00:41:58.229Z,0
2017-05-24T00:42:58.228Z,0
2017-05-24T00:43:58.232Z,0
2017-05-24T00:44:58.230Z,0
2017-05-24T00:45:58.233Z,0
2017-05-24T00:46:58.217Z,0
2017-05-24T00:47:58.282Z,0
2017-05-24T00:48:58.220Z,0
2017-05-24T00:49:58.225Z,0
2017-05-24T00:50:58.225Z,0
2017-05-24T00:51:58.222Z,0
2017-05-24T00:52:58.221Z,0
2017-05-24T00:53:58.296Z,0
2017-05-24T00:54:58.235Z,0
2017-05-24T00:55:58.227Z,0
2017-05-24T00:56:58.259Z,0
2017-05-24T00:57:58.274Z,0
2017-05-24T00:58:58.263Z,0
2017-05-24T00:59:58.246Z,0
2017-05-24T01:00:58.310Z,0
2017-05-24T01:01:58.258Z,0
2017-05-24T01:02:58.244Z,0
2017-05-24T01:03:58.262Z,0
2017-05-24T01:04:58.266Z,0
2017-05-24T01:05:58.264Z,0
2017-05-24T01:06:58.275Z,0
2017-05-24T01:07:58.273Z,0
2017-05-24T01:08:58.315Z,0
2017-05-24T01:09:58.251Z,0
2017-05-24T01:10:58.263Z,0
2017-05-24T01:11:58.279Z,0
2017-05-24T01:12:58.274Z,0
2017-05-24T01:13:58.315Z,0
2017-05-24T01:14:58.246Z,0
2017-05-24T01:15:58.281Z,0
2017-05-24T01:16:58.281Z,0
2017-05-24T01:17:58.246Z,0
2017-05-24T01:18:58.299Z,0
2017-05-24T01:19:58.270Z,0
2017-05-24T01:20:58.322Z,0
2017-05-24T01:21:58.321Z,0
2017-05-24T01:22:58.283Z,0
2017-05-24T01:23:58.255Z,0
2017-05-24T01:24:58.251Z,0
2017-05-24T01:25:58.324Z,0
2017-05-24T01:26:58.387Z,0
2017-05-24T01:27:58.283Z,0
2017-05-24T01:28:58.282Z,0
2017-05-24T01:29:58.283Z,0
2017-05-24T01:30:58.282Z,0
2017-05-24T01:31:58.282Z,0
2017-05-24T01:32:58.281Z,0
2017-05-24T01:33:58.278Z,0
2017-05-24T01:34:58.310Z,0
2017-05-24T01:35:58.284Z,0
2017-05-24T01:36:59.340Z,0
2017-05-24T01:37:58.287Z,0
2017-05-24T01:38:58.329Z,0
2017-05-24T01:39:58.330Z,0
2017-05-24T01:40:58.333Z,0
2017-05-24T01:41:58.290Z,0
2017-05-24T01:42:58.265Z,0
2017-05-24T01:43:58.474Z,0
2017-05-24T01:44:58.262Z,0
2017-05-24T01:45:58.259Z,0
2017-05-24T01:46:58.251Z,0
2017-05-24T01:47:58.260Z,0
2017-05-24T01:48:58.254Z,0
2017-05-24T01:49:58.258Z,0
2017-05-24T01:50:58.252Z,0
2017-05-24T01:51:58.265Z,0
2017-05-24T01:52:58.257Z,0
2017-05-24T01:53:58.255Z,0
2017-05-24T01:54:58.256Z,0
2017-05-24T01:55:58.256Z,0
2017-05-24T01:56:58.291Z,0
2017-05-24T01:57:58.295Z,0
2017-05-24T01:58:58.262Z,0
2017-05-24T01:59:58.263Z,0
2017-05-24T02:00:58.265Z,0
2017-05-24T02:01:58.300Z,0
2017-05-24T02:02:58.293Z,0
2017-05-24T02:03:58.343Z,0
2017-05-24T02:04:58.332Z,0
2017-05-24T02:05:58.301Z,0
2017-05-24T02:06:58.306Z,0
2017-05-24T02:07:58.292Z,0
2017-05-24T02:08:58.296Z,0
2017-05-24T02:09:58.295Z,0
2017-05-24T02:10:58.294Z,0
2017-05-24T02:11:58.292Z,0
2017-05-24T02:12:58.296Z,0
2017-05-24T02:13:58.294Z,0
2017-05-24T02:14:58.304Z,0
2017-05-24T02:15:58.292Z,0
2017-05-24T02:16:58.257Z,0
2017-05-24T02:17:58.311Z,0
2017-05-24T02:18:58.310Z,0
2017-05-24T02:19:58.332Z,0
2017-05-24T02:20:58.295Z,0
2017-05-24T02:21:58.310Z,0
2017-05-24T02:22:58.301Z,0
2017-05-24T02:23:58.358Z,0
2017-05-24T02:24:58.314Z,0
2017-05-24T02:25:58.313Z,0
2017-05-24T02:26:58.313Z,0
2017-05-24T02:27:58.318Z,0
2017-05-24T02:28:58.358Z,0
2017-05-24T02:29:58.314Z,0
2017-05-24T02:30:58.304Z,0
2017-05-24T02:31:58.313Z,0
2017-05-24T02:32:58.306Z,0
2017-05-24T02:33:58.336Z,0
2017-05-24T02:34:58.341Z,0
2017-05-24T02:35:58.322Z,0
2017-05-24T02:36:58.292Z,0
2017-05-24T02:37:58.284Z,0
2017-05-24T02:38:58.312Z,0
2017-05-24T02:39:58.310Z,0
2017-05-24T02:40:58.319Z,0
2017-05-24T02:41:58.425Z,0
2017-05-24T02:42:58.326Z,0
2017-05-24T02:43:58.317Z,0
2017-05-24T02:44:58.318Z,0
2017-05-24T02:45:58.327Z,0
2017-05-24T02:46:58.326Z,0
2017-05-24T02:47:58.325Z,0
2017-05-24T02:48:58.328Z,0
2017-05-24T02:49:58.369Z,0
2017-05-24T02:50:58.365Z,0
2017-05-24T02:51:58.320Z,0
2017-05-24T02:52:58.326Z,0
2017-05-24T02:53:58.323Z,0
2017-05-24T02:54:58.332Z,0
2017-05-24T02:55:58.371Z,0
2017-05-24T02:56:58.301Z,0
2017-05-24T02:57:58.326Z,5
2017-05-24T02:58:58.307Z,5
2017-05-24T02:59:58.321Z,5
2017-05-24T03:00:58.426Z,5
2017-05-24T03:01:58.329Z,5
2017-05-24T03:02:58.327Z,5
2017-05-24T03:03:58.525Z,11
2017-05-24T03:04:58.326Z,11
2017-05-24T03:05:58.305Z,11
2017-05-24T03:06:58.299Z,11
2017-05-24T03:07:58.325Z,16
2017-05-24T03:08:58.376Z,16
2017-05-24T03:09:58.318Z,16
2017-05-24T03:10:58.322Z,22
2017-05-24T03:11:58.388Z,22
2017-05-24T03:12:58.328Z,22
2017-05-24T03:13:58.326Z,28
2017-05-24T03:14:58.329Z,28
2017-05-24T03:15:58.326Z,28
2017-05-24T03:16:58.329Z,33
2017-05-24T03:17:58.335Z,33
2017-05-24T03:18:58.533Z,39
2017-05-24T03:19:58.331Z,39
2017-05-24T03:20:58.536Z,45
2017-05-24T03:21:58.333Z,45
2017-05-24T03:22:58.346Z,50
2017-05-24T03:23:58.333Z,50
2017-05-24T03:24:58.359Z,56
2017-05-24T03:25:58.332Z,61
2017-05-24T03:26:58.339Z,61
2017-05-24T03:27:58.346Z,67
2017-05-24T03:28:58.347Z,73
2017-05-24T03:29:58.314Z,78
2017-05-24T03:30:58.339Z,78
2017-05-24T03:31:58.349Z,84
2017-05-24T03:32:58.335Z,90
2017-05-24T03:33:58.358Z,95
2017-05-24T03:34:58.356Z,101
2017-05-24T03:35:58.314Z,106
2017-05-24T03:36:58.343Z,112
2017-05-24T03:37:58.348Z,118
2017-05-24T03:38:58.341Z,118
2017-05-24T03:39:58.346Z,123
2017-05-24T03:40:58.359Z,129
2017-05-24T03:41:58.340Z,135
2017-05-24T03:42:58.343Z,140
2017-05-24T03:43:58.339Z,146
2017-05-24T03:44:58.335Z,151
2017-05-24T03:45:58.344Z,157
2017-05-24T03:46:58.393Z,168
2017-05-24T03:47:58.333Z,168
2017-05-24T03:48:58.324Z,180
2017-05-24T03:49:58.332Z,180
2017-05-24T03:50:58.325Z,180
2017-05-24T03:51:58.327Z,185
2017-05-24T03:52:58.328Z,191
2017-05-24T03:53:58.327Z,196
2017-05-24T03:54:58.330Z,202
2017-05-24T03:55:58.326Z,208
2017-05-24T03:56:58.331Z,213
2017-05-24T03:57:58.353Z,219
2017-05-24T03:58:58.354Z,225
2017-05-24T03:59:58.332Z,230
2017-05-24T04:00:58.350Z,236
2017-05-24T04:01:58.351Z,247
2017-05-24T04:02:58.349Z,258
2017-05-24T04:03:58.368Z,264
2017-05-24T04:04:58.348Z,281
2017-05-24T04:05:58.555Z,292
2017-05-24T04:06:58.349Z,303
2017-05-24T04:07:58.290Z,315
2017-05-24T04:08:58.301Z,331
2017-05-24T04:09:58.290Z,343
2017-05-24T04:10:58.253Z,360
2017-05-24T04:11:58.303Z,371
2017-05-24T04:12:58.307Z,376
2017-05-24T04:13:58.263Z,382
2017-05-24T04:14:58.319Z,376
2017-05-24T04:15:58.293Z,376
2017-05-24T04:16:58.307Z,376
2017-05-24T04:17:58.331Z,382
2017-05-24T04:18:58.406Z,388
2017-05-24T04:19:58.361Z,388
2017-05-24T04:20:58.338Z,388
2017-05-24T04:21:58.422Z,393
2017-05-24T04:22:58.373Z,393
2017-05-24T04:23:58.381Z,393
2017-05-24T04:24:58.365Z,393
2017-05-24T04:25:58.353Z,393
2017-05-24T04:26:58.378Z,393
2017-05-24T04:27:58.365Z,399
2017-05-24T04:28:58.360Z,405
2017-05-24T04:29:58.362Z,416
2017-05-24T04:30:58.360Z,433
2017-05-24T04:31:58.359Z,455
2017-05-24T04:32:58.343Z,461
2017-05-24T04:33:58.470Z,455
2017-05-24T04:34:58.368Z,455
2017-05-24T04:35:58.371Z,455
2017-05-24T04:36:58.370Z,466
2017-05-24T04:37:58.365Z,489
2017-05-24T04:38:58.382Z,495
2017-05-24T04:39:58.366Z,506
2017-05-24T04:40:58.378Z,517
2017-05-24T04:41:58.386Z,528
2017-05-24T04:42:58.370Z,540
2017-05-24T04:43:58.424Z,545
2017-05-24T04:44:58.403Z,551
2017-05-24T04:45:58.540Z,551
2017-05-24T04:46:58.381Z,568
2017-05-24T04:47:58.478Z,585
2017-05-24T04:48:58.372Z,613
2017-05-24T04:49:58.577Z,630
2017-05-24T04:50:58.374Z,635
2017-05-24T04:51:58.333Z,641
2017-05-24T04:52:58.428Z,663
2017-05-24T04:53:58.366Z,691
2017-05-24T04:54:58.371Z,708
2017-05-24T04:55:58.378Z,736
2017-05-24T04:56:58.581Z,770
2017-05-24T04:57:58.362Z,793
2017-05-24T04:58:58.362Z,804
2017-05-24T04:59:58.359Z,810
2017-05-24T05:00:58.363Z,810
2017-05-24T05:01:58.364Z,804
2017-05-24T05:02:58.361Z,810
2017-05-24T05:03:58.362Z,793
2017-05-24T05:04:58.364Z,804
2017-05-24T05:05:58.361Z,804
2017-05-24T05:06:58.364Z,826
2017-05-24T05:07:58.393Z,849
2017-05-24T05:08:58.384Z,826
2017-05-24T05:09:58.387Z,776
2017-05-24T05:10:58.405Z,714
2017-05-24T05:11:58.384Z,686
2017-05-24T05:12:58.383Z,641
2017-05-24T05:13:58.384Z,613
2017-05-24T05:14:58.391Z,607
2017-05-24T05:15:58.441Z,596
2017-05-24T05:16:58.394Z,590
2017-05-24T05:17:58.366Z,596
2017-05-24T05:18:59.500Z,607
2017-05-24T05:19:58.393Z,630
2017-05-24T05:20:58.386Z,635
2017-05-24T05:21:58.389Z,624
2017-05-24T05:22:58.387Z,596
2017-05-24T05:23:58.386Z,590
2017-05-24T05:24:58.386Z,601
2017-05-24T05:25:58.414Z,618
2017-05-24T05:26:58.382Z,635
2017-05-24T05:27:58.450Z,641
2017-05-24T05:28:58.379Z,669
2017-05-24T05:29:58.376Z,680
2017-05-24T05:30:58.376Z,686
2017-05-24T05:31:58.375Z,697
2017-05-24T05:32:58.378Z,703
2017-05-24T05:33:58.377Z,714
2017-05-24T05:34:58.381Z,725
2017-05-24T05:35:58.376Z,731
2017-05-24T05:36:58.375Z,804
2017-05-24T05:37:58.385Z,849
2017-05-24T05:38:58.385Z,883
2017-05-24T05:39:58.391Z,945
2017-05-24T05:40:58.389Z,1153
2017-05-24T05:41:58.387Z,1485
2017-05-24T05:42:58.387Z,1366
2017-05-24T05:43:58.386Z,1417
2017-05-24T05:44:58.388Z,1451
2017-05-24T05:45:58.390Z,1440
2017-05-24T05:46:58.380Z,1423
2017-05-24T05:47:58.405Z,1546
2017-05-24T05:48:58.390Z,1215
2017-05-24T05:49:58.430Z,1428
2017-05-24T05:50:58.390Z,1018
2017-05-24T05:51:58.409Z,1023
2017-05-24T05:52:58.405Z,1068
2017-05-24T05:53:58.405Z,1153
2017-05-24T05:54:58.431Z,1276
2017-05-24T05:55:58.418Z,1355
2017-05-24T05:56:58.418Z,1378
2017-05-24T05:57:58.418Z,1383
2017-05-24T05:58:58.382Z,1440
2017-05-24T05:59:58.388Z,1490
2017-05-24T06:00:58.486Z,1513
2017-05-24T06:01:58.387Z,1580
2017-05-24T06:02:58.385Z,1642
2017-05-24T06:03:58.384Z,1485
2017-05-24T06:04:58.493Z,1575
2017-05-24T06:05:58.385Z,1743
2017-05-24T06:06:58.397Z,1755
2017-05-24T06:07:58.391Z,1760
2017-05-24T06:08:58.392Z,1676
2017-05-24T06:09:58.390Z,1811
2017-05-24T06:10:58.398Z,1597
2017-05-24T06:11:58.390Z,1479
2017-05-24T06:12:58.394Z,1490
2017-05-24T06:13:58.393Z,1648
2017-05-24T06:14:58.394Z,1591
2017-05-24T06:15:58.396Z,1614
2017-05-24T06:16:58.398Z,1597
2017-05-24T06:17:58.399Z,1743
2017-05-24T06:18:58.447Z,1760
2017-05-24T06:19:58.429Z,1507
2017-05-24T06:20:58.448Z,1513
2017-05-24T06:21:58.388Z,1440
2017-05-24T06:22:58.426Z,1440
2017-05-24T06:23:58.433Z,1451
2017-05-24T06:24:58.433Z,1456
2017-05-24T06:25:58.433Z,1456
2017-05-24T06:26:58.394Z,1468
2017-05-24T06:27:58.426Z,1507
2017-05-24T06:28:58.423Z,1518
2017-05-24T06:29:58.413Z,1535
2017-05-24T06:30:58.407Z,1558
2017-05-24T06:31:58.414Z,1569
2017-05-24T06:32:58.411Z,1586
2017-05-24T06:33:58.412Z,1608
2017-05-24T06:34:58.410Z,1676
2017-05-24T06:35:58.415Z,1732
2017-05-24T06:36:58.417Z,1760
2017-05-24T06:37:58.421Z,1766
2017-05-24T06:38:58.475Z,1715
2017-05-24T06:39:58.443Z,1738
2017-05-24T06:40:58.431Z,1687
2017-05-24T06:41:58.442Z,1715
2017-05-24T06:42:58.438Z,1726
2017-05-24T06:43:58.463Z,1732
2017-05-24T06:44:58.441Z,1760
2017-05-24T06:45:58.507Z,1783
2017-05-24T06:46:58.461Z,1777
2017-05-24T06:47:58.438Z,1766
2017-05-24T06:48:58.414Z,1788
2017-05-24T06:49:58.412Z,1816
2017-05-24T06:50:58.413Z,1884
2017-05-24T06:51:58.412Z,1912
2017-05-24T06:52:58.416Z,1845
2017-05-24T06:53:58.411Z,1890
2017-05-24T06:54:58.417Z,2025
2017-05-24T06:55:58.418Z,2435
2017-05-24T06:56:58.355Z,3414
2017-05-24T06:57:58.416Z,3363
2017-05-24T06:58:58.446Z,2953
2017-05-24T06:59:58.445Z,2463
2017-05-24T07:00:58.471Z,2491
2017-05-24T07:01:58.444Z,2514
2017-05-24T07:02:58.408Z,2430
2017-05-24T07:03:58.460Z,2475
2017-05-24T07:04:58.471Z,2480
2017-05-24T07:05:58.430Z,2801
2017-05-24T07:06:58.474Z,2941
2017-05-24T07:07:58.555Z,3026
2017-05-24T07:08:58.480Z,3375
2017-05-24T07:09:58.410Z,3358
2017-05-24T07:10:58.477Z,3296
2017-05-24T07:11:58.454Z,3549
2017-05-24T07:12:58.457Z,3470
2017-05-24T07:13:58.415Z,3178
2017-05-24T07:14:58.453Z,3279
2017-05-24T07:15:58.562Z,2941
2017-05-24T07:16:58.458Z,2919
2017-05-24T07:17:58.458Z,3318
2017-05-24T07:18:58.439Z,2705
2017-05-24T07:19:58.439Z,2199
2017-05-24T07:20:58.440Z,2992
2017-05-24T07:21:58.439Z,3875
2017-05-24T07:22:58.443Z,4010
2017-05-24T07:23:58.440Z,3875
2017-05-24T07:24:58.440Z,2306
2017-05-24T07:25:58.440Z,2306
2017-05-24T07:26:58.440Z,2193
2017-05-24T07:27:58.441Z,2098
2017-05-24T07:28:58.438Z,2053
2017-05-24T07:29:58.445Z,2216
2017-05-24T07:30:58.468Z,2475
2017-05-24T07:31:58.444Z,2711
2017-05-24T07:32:58.445Z,2531
2017-05-24T07:33:58.463Z,2593
2017-05-24T07:34:58.468Z,2283
2017-05-24T07:35:58.525Z,3875
2017-05-24T07:36:58.446Z,3909
2017-05-24T07:37:58.466Z,3650
2017-05-24T07:38:58.458Z,2885
2017-05-24T07:39:58.463Z,3594
2017-05-24T07:40:58.465Z,3594
2017-05-24T07:41:58.436Z,2745
2017-05-24T07:42:58.491Z,3076
2017-05-24T07:43:58.577Z,3099
2017-05-24T07:44:58.465Z,4072
2017-05-24T07:45:58.515Z,4291
2017-05-24T07:46:58.443Z,3971
2017-05-24T07:47:58.427Z,3403
2017-05-24T07:48:58.465Z,3453
2017-05-24T07:49:58.451Z,2851
2017-05-24T07:50:58.477Z,3774
2017-05-24T07:51:58.466Z,4342
2017-05-24T07:52:58.466Z,4359
2017-05-24T07:53:58.480Z,4128
2017-05-24T07:54:58.498Z,3628
2017-05-24T07:55:58.472Z,3706
2017-05-24T07:56:58.434Z,3661
2017-05-24T07:57:58.468Z,2846
2017-05-24T07:58:58.478Z,3211
2017-05-24T07:59:58.506Z,3228
2017-05-24T08:00:58.486Z,3116
2017-05-24T08:01:58.591Z,2643
2017-05-24T08:02:58.480Z,3043
2017-05-24T08:03:58.476Z,3600
2017-05-24T08:04:58.592Z,4106
2017-05-24T08:05:58.482Z,4308
2017-05-24T08:06:58.479Z,4342
2017-05-24T08:07:58.523Z,4106
2017-05-24T08:08:58.489Z,3836
2017-05-24T08:09:58.488Z,3965
2017-05-24T08:10:58.503Z,3307
2017-05-24T08:11:58.482Z,3600
2017-05-24T08:12:58.487Z,4038
2017-05-24T08:13:58.482Z,4443
2017-05-24T08:14:58.485Z,4173
2017-05-24T08:15:58.477Z,3954
2017-05-24T08:16:58.473Z,3718
2017-05-24T08:17:58.465Z,3960
2017-05-24T08:18:58.421Z,4320
2017-05-24T08:19:58.410Z,3881
2017-05-24T08:20:58.366Z,4635
2017-05-24T08:21:58.468Z,4741
2017-05-24T08:22:58.368Z,4494
2017-05-24T08:23:58.441Z,4989
2017-05-24T08:24:58.379Z,4359
2017-05-24T08:25:58.376Z,4173
2017-05-24T08:26:58.438Z,3870
2017-05-24T08:27:58.428Z,5866
2017-05-24T08:28:58.498Z,3555
2017-05-24T08:29:58.431Z,5619
2017-05-24T08:30:58.521Z,4021
2017-05-24T08:31:58.518Z,5377
2017-05-24T08:32:58.501Z,5400
2017-05-24T08:33:58.498Z,4921
2017-05-24T08:34:58.497Z,5000
2017-05-24T08:35:58.474Z,5405
2017-05-24T08:36:58.505Z,5467
2017-05-24T08:37:58.608Z,5310
2017-05-24T08:38:58.503Z,3076
2017-05-24T08:39:58.485Z,4618
2017-05-24T08:40:58.507Z,6288
2017-05-24T08:42:58.494Z,3498
2017-05-24T08:43:58.483Z,3780
2017-05-24T08:44:58.503Z,2919
2017-05-24T08:45:58.511Z,3459
2017-05-24T08:46:58.505Z,3650
2017-05-24T08:47:58.611Z,4770
2017-05-24T08:48:58.613Z,4584
2017-05-24T08:49:58.464Z,4831
2017-05-24T08:50:58.506Z,4905
2017-05-24T08:51:58.506Z,5439
2017-05-24T08:52:58.509Z,5158
2017-05-24T08:53:58.502Z,4860
2017-05-24T08:54:58.502Z,5293
2017-05-24T08:55:58.514Z,4095
2017-05-24T08:56:58.597Z,5242
2017-05-24T08:57:58.470Z,4381
2017-05-24T08:58:58.512Z,4021
2017-05-24T08:59:58.507Z,3628
2017-05-24T09:00:58.516Z,4100
2017-05-24T09:01:58.509Z,4972
2017-05-24T09:02:58.526Z,5377
2017-05-24T09:03:58.495Z,5146
2017-05-24T09:04:58.533Z,4668
2017-05-24T09:05:58.529Z,5130
2017-05-24T09:06:58.538Z,5394
2017-05-24T09:07:58.537Z,4376
2017-05-24T09:08:58.519Z,4342
2017-05-24T09:09:58.507Z,5872
2017-05-24T09:10:58.511Z,5551
2017-05-24T09:11:58.494Z,5523
2017-05-24T09:12:58.517Z,5720
2017-05-24T09:13:58.518Z,4320
2017-05-24T09:14:58.508Z,3926
2017-05-24T09:15:58.494Z,4280
2017-05-24T09:16:58.518Z,4556
2017-05-24T09:17:58.523Z,4190
2017-05-24T09:18:58.519Z,3358
2017-05-24T09:19:58.527Z,3116
2017-05-24T09:20:58.518Z,3251
2017-05-24T09:21:58.629Z,2964
2017-05-24T09:22:58.515Z,2323
2017-05-24T09:23:58.524Z,1681
2017-05-24T09:24:58.520Z,1974
2017-05-24T09:25:58.542Z,2081
2017-05-24T09:26:58.482Z,3183
2017-05-24T09:27:58.524Z,4736
2017-05-24T09:28:58.550Z,5979
2017-05-24T09:29:58.546Z,3903
2017-05-24T09:30:58.528Z,3791
2017-05-24T09:31:58.530Z,4466
2017-05-24T09:32:58.528Z,3729
2017-05-24T09:33:58.503Z,5585
2017-05-24T09:34:58.525Z,5445
2017-05-24T09:35:58.534Z,5371
2017-05-24T09:36:58.528Z,5495
2017-05-24T09:37:58.539Z,5028
2017-05-24T09:38:58.536Z,5107
2017-05-24T09:39:58.487Z,5512
2017-05-24T09:40:58.434Z,5630
2017-05-24T09:41:58.421Z,4803
2017-05-24T09:42:58.421Z,5844
2017-05-24T09:43:58.428Z,3791
2017-05-24T09:44:58.417Z,5895
2017-05-24T09:45:58.423Z,5388
2017-05-24T09:46:58.476Z,5383
2017-05-24T09:47:58.475Z,5861
2017-05-24T09:48:58.480Z,6283
2017-05-24T09:49:58.503Z,5625
2017-05-24T09:50:58.502Z,3746
2017-05-24T09:51:58.514Z,4696
2017-05-24T09:52:58.510Z,4927
2017-05-24T09:53:58.507Z,3656
2017-05-24T09:54:58.510Z,3099
2017-05-24T09:55:58.506Z,3020
2017-05-24T09:56:58.511Z,3380
2017-05-24T09:57:58.513Z,4606
2017-05-24T09:58:58.516Z,5231
2017-05-24T09:59:58.536Z,3988
2017-05-24T10:00:58.543Z,3813
2017-05-24T10:01:58.547Z,3943
2017-05-24T10:02:58.643Z,3751
2017-05-24T10:03:58.504Z,3605
2017-05-24T10:04:58.638Z,3290
2017-05-24T10:05:58.548Z,3093
2017-05-24T10:06:58.651Z,3048
2017-05-24T10:07:58.547Z,3026
2017-05-24T10:08:58.549Z,2970
2017-05-24T10:09:58.528Z,2930
2017-05-24T10:10:58.528Z,2992
2017-05-24T10:11:58.527Z,3076
2017-05-24T10:12:58.555Z,3206
2017-05-24T10:13:58.526Z,3532
2017-05-24T10:14:58.529Z,3853
2017-05-24T10:15:58.530Z,4151
2017-05-24T10:16:58.530Z,4702
2017-05-24T10:17:58.530Z,7081
2017-05-24T10:18:58.531Z,6952
2017-05-24T10:19:58.546Z,7020
2017-05-24T10:20:58.549Z,6159
2017-05-24T10:21:58.571Z,6018
2017-05-24T10:22:58.556Z,5568
2017-05-24T10:23:58.554Z,6041
2017-05-24T10:24:58.545Z,5445
2017-05-24T10:25:58.554Z,6091
2017-05-24T10:26:58.560Z,5220
2017-05-24T10:27:58.558Z,7481
2017-05-24T10:28:58.531Z,7543
2017-05-24T10:29:58.548Z,4966
2017-05-24T10:30:58.519Z,4539
2017-05-24T10:31:58.555Z,4550
2017-05-24T10:32:58.559Z,4651
2017-05-24T10:33:58.556Z,4151
2017-05-24T10:34:58.538Z,4128
2017-05-24T10:35:58.559Z,3898
2017-05-24T10:36:58.539Z,3577
2017-05-24T10:37:58.565Z,4027
2017-05-24T10:38:58.517Z,4320
2017-05-24T10:39:58.538Z,4725
2017-05-24T10:40:58.564Z,4741
2017-05-24T10:41:58.559Z,4258
2017-05-24T10:42:58.671Z,3729
2017-05-24T10:43:58.556Z,3796
2017-05-24T10:44:58.625Z,4005
2017-05-24T10:45:58.568Z,4145
2017-05-24T10:46:58.569Z,4359
2017-05-24T10:47:58.566Z,4404
2017-05-24T10:48:58.591Z,4938
2017-05-24T10:49:58.547Z,4297
2017-05-24T10:50:58.547Z,3555
2017-05-24T10:51:58.547Z,3481
2017-05-24T10:52:58.543Z,3313
2017-05-24T10:53:58.550Z,2992
2017-05-24T10:54:58.548Z,2801
2017-05-24T10:55:58.630Z,2711
2017-05-24T10:56:58.630Z,2638
2017-05-24T10:57:58.547Z,2559
2017-05-24T10:58:58.551Z,2463
2017-05-24T10:59:58.551Z,2525
2017-05-24T11:00:58.576Z,2615
2017-05-24T11:01:58.568Z,2750
2017-05-24T11:02:58.572Z,2863
2017-05-24T11:03:58.567Z,3076
2017-05-24T11:04:58.638Z,4483
2017-05-24T11:05:58.566Z,3346
2017-05-24T11:06:58.575Z,2851
2017-05-24T11:07:58.581Z,3054
2017-05-24T11:08:58.577Z,3211
2017-05-24T11:09:58.580Z,3245
2017-05-24T11:10:58.593Z,3301
2017-05-24T11:11:58.568Z,3273
2017-05-24T11:12:58.578Z,3172
2017-05-24T11:13:58.555Z,3403
2017-05-24T11:14:58.577Z,3920
2017-05-24T11:15:58.583Z,3234
2017-05-24T11:16:58.580Z,3993
2017-05-24T11:17:58.688Z,3476
2017-05-24T11:18:58.561Z,3448
2017-05-24T11:19:58.585Z,3380
2017-05-24T11:20:58.601Z,3240
2017-05-24T11:21:58.590Z,3037
2017-05-24T11:22:58.562Z,2795
2017-05-24T11:23:58.588Z,2756
2017-05-24T11:24:58.585Z,2846
2017-05-24T11:25:58.585Z,2902
2017-05-24T11:26:58.581Z,2936
2017-05-24T11:27:58.586Z,3009
2017-05-24T11:28:58.584Z,3234
2017-05-24T11:29:58.582Z,3723
2017-05-24T11:30:58.589Z,4016
2017-05-24T11:31:58.591Z,4404
2017-05-24T11:32:58.592Z,4741
2017-05-24T11:33:58.613Z,4196
2017-05-24T11:34:58.570Z,4061
2017-05-24T11:35:58.587Z,3864
2017-05-24T11:36:58.599Z,3802
2017-05-24T11:38:58.592Z,3864
2017-05-24T11:39:58.558Z,3684
2017-05-24T11:40:58.562Z,3858
2017-05-24T11:41:58.560Z,3639
2017-05-24T11:42:58.562Z,6710
2017-05-24T11:43:58.561Z,4747
2017-05-24T11:44:58.563Z,6333
2017-05-24T11:45:58.565Z,6271
2017-05-24T11:46:58.567Z,6570
2017-05-24T11:47:58.564Z,6210
2017-05-24T11:48:58.567Z,3375
2017-05-24T11:49:58.580Z,2947
2017-05-24T11:50:58.682Z,2711
2017-05-24T11:51:58.579Z,2953
2017-05-24T11:52:58.584Z,3065
2017-05-24T11:53:58.577Z,3003
2017-05-24T11:54:58.581Z,2964
2017-05-24T11:55:58.670Z,2812
2017-05-24T11:56:58.581Z,2638
2017-05-24T11:57:58.583Z,2587
2017-05-24T11:58:58.583Z,2486
2017-05-24T11:59:58.564Z,2311
2017-05-24T12:00:58.607Z,2120
2017-05-24T12:01:58.615Z,1968
2017-05-24T12:02:58.606Z,1856
2017-05-24T12:03:58.629Z,1794
2017-05-24T12:04:58.604Z,1788
2017-05-24T12:05:58.601Z,1749
2017-05-24T12:06:58.605Z,1788
2017-05-24T12:07:58.585Z,1951
2017-05-24T12:08:58.609Z,2019
2017-05-24T12:09:58.589Z,2019
2017-05-24T12:10:58.613Z,1929
2017-05-24T12:11:58.591Z,1895
2017-05-24T12:12:58.590Z,1963
2017-05-24T12:13:58.593Z,2120
2017-05-24T12:14:58.597Z,2385
2017-05-24T12:15:58.588Z,2598
2017-05-24T12:16:58.591Z,2711
2017-05-24T12:17:58.597Z,2986
2017-05-24T12:18:58.592Z,3110
2017-05-24T12:19:58.509Z,3251
2017-05-24T12:20:58.570Z,3296
2017-05-24T12:21:58.617Z,3594
2017-05-24T12:22:58.553Z,4730
2017-05-24T12:23:58.519Z,3898
2017-05-24T12:24:58.556Z,4320
2017-05-24T12:25:58.569Z,3566
2017-05-24T12:26:58.549Z,3369
2017-05-24T12:27:58.518Z,3037
2017-05-24T12:28:58.548Z,2733
2017-05-24T12:29:58.594Z,2525
2017-05-24T12:30:58.669Z,2480
2017-05-24T12:31:58.640Z,2553
2017-05-24T12:32:58.642Z,2902
2017-05-24T12:33:58.642Z,3358
2017-05-24T12:34:58.594Z,3330
2017-05-24T12:35:58.598Z,3223
2017-05-24T12:36:58.617Z,3206
2017-05-24T12:37:58.620Z,4443
2017-05-24T12:38:58.617Z,5338
2017-05-24T12:39:58.604Z,3718
2017-05-24T12:40:58.601Z,3476
2017-05-24T12:41:58.607Z,3391
2017-05-24T12:42:58.604Z,2919
2017-05-24T12:43:58.608Z,2829
2017-05-24T12:44:58.604Z,3003
2017-05-24T12:45:58.606Z,2536
2017-05-24T12:46:58.606Z,2295
2017-05-24T12:47:58.609Z,2345
2017-05-24T12:48:58.608Z,2666
2017-05-24T12:49:58.603Z,3009
2017-05-24T12:50:58.596Z,3341
2017-05-24T12:51:58.598Z,3234
2017-05-24T12:52:58.596Z,3065
2017-05-24T12:53:58.606Z,3729
2017-05-24T12:54:58.599Z,3346
2017-05-24T12:55:58.602Z,3189
2017-05-24T12:56:58.598Z,3048
2017-05-24T12:57:58.599Z,2953
2017-05-24T12:58:58.605Z,2874
2017-05-24T12:59:58.606Z,2919
2017-05-24T13:00:58.601Z,3043
2017-05-24T13:01:58.608Z,3690
2017-05-24T13:02:58.607Z,3611
2017-05-24T13:03:58.607Z,3268
2017-05-24T13:04:58.697Z,3026
2017-05-24T13:05:58.605Z,2835
2017-05-24T13:06:58.615Z,2778
2017-05-24T13:07:58.609Z,2761
2017-05-24T13:08:58.607Z,2728
2017-05-24T13:09:58.633Z,2700
2017-05-24T13:10:58.746Z,2688
2017-05-24T13:11:58.665Z,2863
2017-05-24T13:12:58.631Z,2885
2017-05-24T13:13:58.637Z,2739
2017-05-24T13:14:58.650Z,2818
2017-05-24T13:15:58.747Z,2981
2017-05-24T13:16:58.618Z,3211
2017-05-24T13:17:58.640Z,3375
2017-05-24T13:18:58.602Z,3279
2017-05-24T13:19:58.614Z,3031
2017-05-24T13:20:58.626Z,2829
2017-05-24T13:21:58.623Z,2643
2017-05-24T13:22:58.626Z,2446
2017-05-24T13:23:58.623Z,2295
2017-05-24T13:24:58.624Z,2047
2017-05-24T13:25:58.627Z,1850
2017-05-24T13:26:58.627Z,1811
2017-05-24T13:27:58.623Z,1738
2017-05-24T13:28:58.625Z,1653
2017-05-24T13:29:58.626Z,1597
2017-05-24T13:30:58.605Z,1569
2017-05-24T13:31:58.646Z,1546
2017-05-24T13:32:58.648Z,1468
2017-05-24T13:33:58.655Z,1361
2017-05-24T13:34:58.673Z,1231
2017-05-24T13:35:58.650Z,1141
2017-05-24T13:36:58.649Z,1085
2017-05-24T13:37:58.654Z,1074
2017-05-24T13:38:58.630Z,1029
2017-05-24T13:39:58.649Z,995
2017-05-24T13:40:58.667Z,1040
2017-05-24T13:41:58.659Z,1051
2017-05-24T13:42:58.655Z,1085
2017-05-24T13:43:58.636Z,1203
2017-05-24T13:44:58.648Z,1361
2017-05-24T13:45:58.654Z,1327